Ranchos de Taos, New Mexico
Current Conditions -  °F | °C
As of 5:35 AM on Monday 24 Nov 2014 (Local Time) from KSKX Reporting Station
Clear Clear  
Wind Chill: -15°   Ceiling: Unl
Heat Index:   Visibility: 10mi
Dew Point: -6°   Wind: 8mph
Humidity: 78%   Direction: 360°N
Pressure: 30.06"   Gusts: NA
Location:  36.36°N, 105.61°W
Report Text: KSKX 241235Z AUTO 36007KT 10SM CLR M18/M21 A3006 RMK AO1
Loading
Personal Weather Stations






























Interactive Weather Map New forecast layout! Learn more

10-Day Weather Forecast

Advertisements
Track Severe Weather on mobile